Time;durP1;ratioP1;P1;durP2;ratioP2;P2;SDS_P1;SDS_P2;PMS_P1;PMS_P2;Temp;Humidity;BMP_temperature;BMP_pressure;BME280_temperature;BME280_humidity;BME280_pressure;Samples;Min_cycle;Max_cycle;Signal;HPM_P1;HPM_P2
2023/09/08 00:00:53;;;;;;;10.68;8.43;;;18.50;99.90;;;;;;5011114;28;20053;-71
2023/09/08 00:03:21;;;;;;;9.27;8.23;;;18.50;99.90;;;;;;5012505;28;20160;-70
2023/09/08 00:05:49;;;;;;;11.13;8.68;;;18.40;99.90;;;;;;4976843;28;20042;-69
2023/09/08 00:08:17;;;;;;;9.25;8.30;;;18.40;99.90;;;;;;5012875;28;20386;-71
2023/09/08 00:10:45;;;;;;;11.07;8.57;;;18.30;99.90;;;;;;4992714;28;20044;-70
2023/09/08 00:13:12;;;;;;;9.50;8.18;;;18.30;99.90;;;;;;5003667;28;20045;-69
2023/09/08 00:15:39;;;;;;;8.93;8.10;;;18.30;99.90;;;;;;5009785;28;20053;-70
2023/09/08 00:18:07;;;;;;;10.18;8.60;;;18.30;99.90;;;;;;4975827;28;20058;-70
2023/09/08 00:20:35;;;;;;;10.30;8.85;;;18.30;99.90;;;;;;4990401;28;20053;-70
2023/09/08 00:23:03;;;;;;;10.38;8.50;;;18.30;99.90;;;;;;5010298;28;20049;-70
2023/09/08 00:25:31;;;;;;;9.68;8.68;;;18.30;99.90;;;;;;5004233;28;20631;-70
2023/09/08 00:27:58;;;;;;;9.65;8.60;;;18.20;99.90;;;;;;5009197;28;20038;-70
2023/09/08 00:30:26;;;;;;;9.40;8.30;;;18.20;99.90;;;;;;4992422;28;20057;-70
2023/09/08 00:32:54;;;;;;;11.85;9.10;;;18.10;99.90;;;;;;4992696;28;20123;-70
2023/09/08 00:35:21;;;;;;;8.73;7.93;;;18.10;99.90;;;;;;5006687;28;20053;-70
2023/09/08 00:37:49;;;;;;;9.02;8.13;;;18.00;99.90;;;;;;5006772;28;20100;-70
2023/09/08 00:40:17;;;;;;;9.10;8.20;;;18.00;99.90;;;;;;4991052;28;20498;-71
2023/09/08 00:42:44;;;;;;;11.75;9.00;;;17.90;99.90;;;;;;5008505;28;20573;-70
2023/09/08 00:45:11;;;;;;;9.57;8.57;;;18.00;99.90;;;;;;5006864;28;20064;-70
2023/09/08 00:47:40;;;;;;;9.85;8.85;;;17.90;99.90;;;;;;5008125;28;20414;-70
2023/09/08 00:50:09;;;;;;;10.20;8.32;;;17.80;99.90;;;;;;5004228;28;20053;-70
2023/09/08 00:52:36;;;;;;;9.98;8.98;;;17.80;99.90;;;;;;4993599;28;20126;-71
2023/09/08 00:55:04;;;;;;;8.98;8.07;;;17.80;99.90;;;;;;5003966;28;20482;-70
2023/09/08 00:57:33;;;;;;;8.90;8.05;;;17.70;99.90;;;;;;4990905;28;20437;-70
2023/09/08 01:00:00;;;;;;;9.70;8.43;;;17.70;99.90;;;;;;4989429;28;20054;-70
2023/09/08 01:02:28;;;;;;;9.55;8.65;;;17.70;99.90;;;;;;4988329;28;20554;-70
2023/09/08 01:04:55;;;;;;;11.35;8.60;;;17.70;99.90;;;;;;5007556;28;20417;-69
2023/09/08 01:07:23;;;;;;;10.15;8.60;;;17.60;99.90;;;;;;4990127;28;20116;-70
2023/09/08 01:09:50;;;;;;;8.88;7.97;;;17.60;99.90;;;;;;4991188;28;20136;-70
2023/09/08 01:12:19;;;;;;;8.93;8.02;;;17.50;99.90;;;;;;4990938;28;20099;-71
2023/09/08 01:14:46;;;;;;;9.02;8.13;;;17.50;99.90;;;;;;4990457;28;20057;-69
2023/09/08 01:17:14;;;;;;;11.43;8.32;;;17.40;99.90;;;;;;5008378;28;20533;-70
2023/09/08 01:19:43;;;;;;;8.93;8.02;;;17.40;99.90;;;;;;5009865;28;20679;-71
2023/09/08 01:22:51;;;;;;;11.07;8.35;;;17.40;99.90;;;;;;4991751;28;20390;-70
2023/09/08 01:25:20;;;;;;;9.30;8.10;;;17.30;99.90;;;;;;4999331;28;20116;-70
2023/09/08 01:27:51;;;;;;;9.20;8.30;;;17.30;99.90;;;;;;5006670;28;20046;-70
2023/09/08 01:30:21;;;;;;;9.65;8.10;;;17.30;99.90;;;;;;4989965;28;20061;-70
2023/09/08 01:32:49;;;;;;;9.43;8.43;;;17.30;99.90;;;;;;4974146;28;20052;-70
2023/09/08 01:35:18;;;;;;;8.88;7.97;;;17.20;99.90;;;;;;5008461;28;20412;-71
2023/09/08 01:37:46;;;;;;;10.10;8.65;;;17.30;99.90;;;;;;5005911;28;20325;-70
2023/09/08 01:40:16;;;;;;;10.27;8.60;;;17.20;99.90;;;;;;4990533;28;20042;-71
2023/09/08 01:42:45;;;;;;;9.43;8.10;;;17.20;99.90;;;;;;4991494;28;20589;-70
2023/09/08 01:45:12;;;;;;;10.18;8.60;;;17.20;99.90;;;;;;4974573;28;20196;-70
2023/09/08 01:47:39;;;;;;;9.48;8.23;;;17.20;99.90;;;;;;5007806;28;20048;-70
2023/09/08 01:50:07;;;;;;;10.35;8.38;;;17.20;99.90;;;;;;4989551;28;20054;-70
2023/09/08 01:52:35;;;;;;;10.48;8.63;;;17.10;99.90;;;;;;5007995;28;20049;-70
2023/09/08 01:55:03;;;;;;;9.43;8.52;;;17.10;99.90;;;;;;4990174;28;20505;-70
2023/09/08 01:57:30;;;;;;;11.18;8.82;;;17.10;99.90;;;;;;4975409;28;20049;-70
2023/09/08 01:59:57;;;;;;;10.48;8.70;;;17.10;99.90;;;;;;4991505;28;20105;-70
2023/09/08 02:02:25;;;;;;;9.23;8.32;;;17.00;99.90;;;;;;4989068;28;20577;-70
2023/09/08 02:04:53;;;;;;;10.10;8.48;;;16.90;99.90;;;;;;4991287;28;20120;-70
2023/09/08 02:07:21;;;;;;;14.07;8.80;;;16.90;99.90;;;;;;4991726;28;20457;-70
2023/09/08 02:09:51;;;;;;;12.00;8.48;;;16.80;99.90;;;;;;4989636;28;20099;-70
2023/09/08 02:12:19;;;;;;;10.70;9.00;;;16.80;99.90;;;;;;5008161;28;20069;-70
2023/09/08 02:14:46;;;;;;;11.18;8.85;;;16.70;99.90;;;;;;5013020;28;20598;-70
2023/09/08 02:17:14;;;;;;;11.18;8.88;;;16.70;99.90;;;;;;4977570;28;20410;-70
2023/09/08 02:19:44;;;;;;;9.32;8.23;;;16.60;99.90;;;;;;4995549;28;20081;-70
2023/09/08 02:22:11;;;;;;;12.43;8.45;;;16.60;99.90;;;;;;4993912;28;20576;-70
2023/09/08 02:24:39;;;;;;;9.50;8.50;;;16.50;99.90;;;;;;4993543;28;20506;-70
2023/09/08 02:27:06;;;;;;;10.98;8.48;;;16.50;99.90;;;;;;5008537;28;20108;-70
2023/09/08 02:29:35;;;;;;;9.88;8.85;;;16.50;99.90;;;;;;4995474;28;20050;-70
2023/09/08 02:32:02;;;;;;;10.75;8.85;;;16.50;99.90;;;;;;5006718;28;20034;-70
2023/09/08 02:34:30;;;;;;;9.77;8.40;;;16.50;99.90;;;;;;4993157;28;20092;-71
2023/09/08 02:36:57;;;;;;;10.90;8.82;;;16.40;99.90;;;;;;4993026;28;20061;-70
2023/09/08 02:39:26;;;;;;;10.27;8.63;;;16.40;99.90;;;;;;4993141;28;20045;-70
2023/09/08 02:41:54;;;;;;;12.70;9.13;;;16.30;99.90;;;;;;4993336;28;20069;-70
2023/09/08 02:44:22;;;;;;;10.65;8.63;;;16.20;99.90;;;;;;4975933;28;20131;-71
2023/09/08 02:46:49;;;;;;;9.43;8.13;;;16.20;99.90;;;;;;4996020;28;20042;-70
2023/09/08 02:49:17;;;;;;;10.77;9.27;;;16.20;99.90;;;;;;4978500;28;20053;-70
2023/09/08 02:51:44;;;;;;;9.70;8.70;;;16.10;99.90;;;;;;4964461;28;20487;-71
2023/09/08 02:54:12;;;;;;;11.27;9.23;;;16.10;99.90;;;;;;5010575;28;20042;-69
2023/09/08 02:56:39;;;;;;;13.43;9.02;;;16.10;99.90;;;;;;4993532;28;20119;-69
2023/09/08 02:59:07;;;;;;;10.52;8.23;;;16.00;99.90;;;;;;4993528;28;20058;-68
2023/09/08 03:01:36;;;;;;;10.80;8.77;;;16.10;99.90;;;;;;4992717;28;20073;-69
2023/09/08 03:04:04;;;;;;;10.55;8.68;;;16.00;99.90;;;;;;4994625;28;20061;-70
2023/09/08 03:06:34;;;;;;;10.98;8.95;;;16.00;99.90;;;;;;5004622;28;20123;-70
2023/09/08 03:09:01;;;;;;;9.98;8.77;;;15.90;99.90;;;;;;5009326;28;20033;-70
2023/09/08 03:11:29;;;;;;;10.07;8.88;;;15.90;99.90;;;;;;4977334;28;20049;-70
2023/09/08 03:13:56;;;;;;;14.02;9.18;;;15.90;99.90;;;;;;5009638;28;20045;-70
2023/09/08 03:16:24;;;;;;;13.48;8.43;;;15.80;99.90;;;;;;5008597;28;20045;-70
2023/09/08 03:18:51;;;;;;;9.30;8.30;;;15.80;99.90;;;;;;5011608;28;20539;-70
2023/09/08 03:21:19;;;;;;;10.32;8.65;;;15.80;99.90;;;;;;4976939;28;20042;-70
2023/09/08 03:23:46;;;;;;;12.80;9.05;;;15.80;99.90;;;;;;4994028;28;20085;-70
2023/09/08 03:26:14;;;;;;;11.05;8.85;;;15.80;99.90;;;;;;4993207;28;20038;-68
2023/09/08 03:28:42;;;;;;;11.60;9.02;;;15.70;99.90;;;;;;4992982;28;20120;-70
2023/09/08 03:31:10;;;;;;;13.40;9.60;;;15.70;99.90;;;;;;4992873;28;20099;-70
2023/09/08 03:33:38;;;;;;;9.75;8.60;;;15.70;99.90;;;;;;5008766;28;20074;-70
2023/09/08 03:36:08;;;;;;;11.35;9.13;;;15.60;99.90;;;;;;4992726;28;20056;-70
2023/09/08 03:38:37;;;;;;;12.27;9.23;;;15.70;99.90;;;;;;4979183;28;20060;-70
2023/09/08 03:41:06;;;;;;;11.35;9.10;;;15.60;99.90;;;;;;4990115;28;20053;-70
2023/09/08 03:43:33;;;;;;;12.00;9.85;;;15.60;99.90;;;;;;4988349;28;20447;-70
2023/09/08 03:46:01;;;;;;;11.23;8.45;;;15.60;99.90;;;;;;4993103;28;20042;-71
2023/09/08 03:48:29;;;;;;;10.80;9.25;;;15.60;99.90;;;;;;4993583;28;20053;-70
2023/09/08 03:50:58;;;;;;;10.43;8.68;;;15.50;99.90;;;;;;4991425;28;20514;-70
2023/09/08 03:53:27;;;;;;;11.13;8.90;;;15.50;99.90;;;;;;4977092;28;20057;-70
2023/09/08 03:55:54;;;;;;;13.65;9.30;;;15.50;99.90;;;;;;5009938;28;20116;-70
2023/09/08 03:58:21;;;;;;;11.25;9.27;;;15.50;99.90;;;;;;5004160;28;20048;-70
2023/09/08 04:00:49;;;;;;;11.25;8.88;;;15.40;99.90;;;;;;4994883;28;20498;-70
2023/09/08 04:03:16;;;;;;;10.13;9.05;;;15.40;99.90;;;;;;4989027;28;20549;-70
2023/09/08 04:05:44;;;;;;;10.48;9.35;;;15.40;99.90;;;;;;4976973;28;20120;-71
2023/09/08 04:08:11;;;;;;;12.32;9.90;;;15.40;99.90;;;;;;4985213;28;20585;-70
2023/09/08 04:10:39;;;;;;;11.77;9.65;;;15.40;99.90;;;;;;5008734;28;20088;-71
2023/09/08 04:13:07;;;;;;;12.35;9.30;;;15.40;99.90;;;;;;4976807;28;20041;-72
2023/09/08 04:15:34;;;;;;;10.65;8.80;;;15.40;99.90;;;;;;5010202;28;20521;-70
2023/09/08 04:18:02;;;;;;;11.35;9.23;;;15.40;99.90;;;;;;4989985;28;20046;-70
2023/09/08 04:20:29;;;;;;;11.93;9.32;;;15.40;99.90;;;;;;4993401;28;20540;-71
2023/09/08 04:22:57;;;;;;;10.07;9.02;;;15.50;99.90;;;;;;4991543;28;20045;-70
2023/09/08 04:25:24;;;;;;;13.85;10.70;;;15.40;99.90;;;;;;4988226;28;20140;-71
2023/09/08 04:27:52;;;;;;;11.55;9.38;;;15.40;99.90;;;;;;5006688;28;20054;-70
2023/09/08 04:30:19;;;;;;;15.15;9.35;;;15.40;99.90;;;;;;5009904;28;20120;-70
2023/09/08 04:32:47;;;;;;;12.75;9.73;;;15.40;99.90;;;;;;4991763;28;20053;-70
2023/09/08 04:35:14;;;;;;;12.30;9.15;;;15.40;99.90;;;;;;4992292;28;20073;-70
2023/09/08 04:37:42;;;;;;;10.93;9.25;;;15.40;99.90;;;;;;4991246;28;20504;-70
2023/09/08 04:40:10;;;;;;;12.20;9.63;;;15.40;99.90;;;;;;4994837;28;20104;-71
2023/09/08 04:42:38;;;;;;;12.43;9.27;;;15.30;99.90;;;;;;4990439;28;20136;-70
2023/09/08 04:45:07;;;;;;;10.18;9.00;;;15.30;99.90;;;;;;4990020;28;20048;-70
2023/09/08 04:47:37;;;;;;;14.02;9.25;;;15.30;99.90;;;;;;4990513;28;20051;-71
2023/09/08 04:50:05;;;;;;;10.95;9.18;;;15.30;99.90;;;;;;4960619;28;20122;-70
2023/09/08 04:52:33;;;;;;;11.02;9.63;;;15.40;99.90;;;;;;4969426;28;20119;-70
2023/09/08 04:55:01;;;;;;;13.50;8.75;;;15.40;99.90;;;;;;4994871;28;20046;-70
2023/09/08 04:57:30;;;;;;;12.90;9.48;;;15.40;99.90;;;;;;4990866;28;20132;-69
2023/09/08 04:59:58;;;;;;;11.63;8.80;;;15.40;99.90;;;;;;5005485;28;20097;-70
2023/09/08 05:02:26;;;;;;;11.48;8.57;;;15.40;99.90;;;;;;4988184;28;20060;-71
2023/09/08 05:04:54;;;;;;;13.38;9.15;;;15.50;99.90;;;;;;4992531;28;20034;-71
2023/09/08 05:07:22;;;;;;;11.13;9.13;;;15.50;99.90;;;;;;4977792;28;20053;-71
2023/09/08 05:09:50;;;;;;;10.75;9.48;;;15.60;99.90;;;;;;4991522;28;20113;-72
2023/09/08 05:12:18;;;;;;;9.80;8.55;;;15.70;99.90;;;;;;4975271;28;20510;-69
2023/09/08 05:14:46;;;;;;;11.32;9.20;;;15.70;99.90;;;;;;4992289;28;20056;-71
2023/09/08 05:17:14;;;;;;;14.35;9.13;;;15.80;99.90;;;;;;5014826;28;20069;-71
2023/09/08 05:19:41;;;;;;;13.20;9.02;;;15.80;99.90;;;;;;4993442;28;20429;-71
2023/09/08 05:22:09;;;;;;;11.07;9.15;;;15.90;99.90;;;;;;4991343;28;20103;-71
2023/09/08 05:24:36;;;;;;;14.27;10.25;;;15.90;99.90;;;;;;4991654;28;20465;-71
2023/09/08 05:27:04;;;;;;;15.35;11.48;;;16.00;99.90;;;;;;4979241;28;20258;-71
2023/09/08 05:29:32;;;;;;;11.38;9.07;;;16.10;99.90;;;;;;4977363;28;20044;-71
2023/09/08 05:31:59;;;;;;;12.93;9.30;;;16.10;99.90;;;;;;4990301;28;20034;-71
2023/09/08 05:34:27;;;;;;;10.13;8.55;;;16.20;99.90;;;;;;4993615;28;20088;-70
2023/09/08 05:36:55;;;;;;;12.02;9.15;;;16.30;99.90;;;;;;4991903;28;20129;-71
2023/09/08 05:39:22;;;;;;;11.52;8.82;;;16.30;99.90;;;;;;4993204;28;20053;-71
2023/09/08 05:41:50;;;;;;;11.40;7.90;;;16.40;99.90;;;;;;4996281;28;20038;-72
2023/09/08 05:44:18;;;;;;;13.13;8.25;;;16.60;99.90;;;;;;4988866;28;20458;-70
2023/09/08 05:46:45;;;;;;;13.27;10.32;;;17.30;99.90;;;;;;4977970;28;20053;-72
2023/09/08 05:49:14;;;;;;;13.07;9.63;;;17.10;99.90;;;;;;4990602;28;20109;-72
2023/09/08 05:51:42;;;;;;;17.77;10.98;;;17.00;99.90;;;;;;4979956;28;20422;-71
2023/09/08 05:54:10;;;;;;;10.95;9.50;;;16.90;99.90;;;;;;4994255;28;20062;-72
2023/09/08 05:56:38;;;;;;;12.95;10.00;;;16.90;99.90;;;;;;4992102;28;20041;-71
2023/09/08 05:59:06;;;;;;;15.15;9.88;;;16.90;99.90;;;;;;4982439;28;20038;-71
2023/09/08 06:01:33;;;;;;;13.38;11.10;;;16.90;99.90;;;;;;5011665;28;20054;-72
2023/09/08 06:04:02;;;;;;;13.68;10.25;;;17.00;99.90;;;;;;4990723;28;20081;-72
2023/09/08 06:06:32;;;;;;;14.80;9.48;;;17.10;99.90;;;;;;4994854;28;20056;-72
2023/09/08 06:08:59;;;;;;;12.10;9.25;;;17.10;99.90;;;;;;5002566;28;20100;-72
2023/09/08 06:11:27;;;;;;;11.43;9.25;;;17.10;99.90;;;;;;4992697;28;20042;-72
2023/09/08 06:13:58;;;;;;;11.23;9.65;;;17.20;99.90;;;;;;4959517;28;20046;-72
2023/09/08 06:16:30;;;;;;;12.40;9.30;;;17.30;99.90;;;;;;4991228;28;20474;-71
2023/09/08 06:18:58;;;;;;;10.82;9.30;;;17.30;99.90;;;;;;4993025;28;20124;-70
2023/09/08 06:21:26;;;;;;;14.35;9.20;;;17.30;99.90;;;;;;4991414;28;20079;-71
2023/09/08 06:23:53;;;;;;;13.82;9.60;;;17.30;99.90;;;;;;4973249;28;20069;-71
2023/09/08 06:26:20;;;;;;;14.77;9.05;;;17.30;99.90;;;;;;4990946;28;20132;-71
2023/09/08 06:28:48;;;;;;;12.15;9.52;;;17.40;99.90;;;;;;4993974;28;20100;-71
2023/09/08 06:31:16;;;;;;;12.77;9.27;;;17.50;99.90;;;;;;4989064;28;20046;-69
2023/09/08 06:33:44;;;;;;;13.20;9.95;;;17.50;99.90;;;;;;4974542;28;20057;-71
2023/09/08 06:36:12;;;;;;;12.52;10.68;;;17.50;99.90;;;;;;4989294;28;20050;-70
2023/09/08 06:38:40;;;;;;;14.18;10.77;;;17.60;99.90;;;;;;5006166;28;20057;-71
2023/09/08 06:41:11;;;;;;;13.05;9.73;;;17.70;99.90;;;;;;4996197;28;20107;-71
2023/09/08 06:43:39;;;;;;;14.27;10.88;;;17.80;99.90;;;;;;4990212;28;20528;-71
2023/09/08 06:46:15;;;;;;;11.95;9.88;;;17.90;99.90;;;;;;4981871;28;20355;-71
2023/09/08 06:48:42;;;;;;;10.82;9.02;;;18.00;99.90;;;;;;5008663;28;20466;-71
2023/09/08 06:51:10;;;;;;;12.48;9.57;;;18.10;99.90;;;;;;5001161;28;20048;-71
2023/09/08 06:53:39;;;;;;;11.60;8.77;;;18.10;99.90;;;;;;4978620;28;20092;-72
2023/09/08 06:56:06;;;;;;;11.05;9.10;;;18.20;99.90;;;;;;4990231;28;20141;-70
2023/09/08 06:58:34;;;;;;;13.20;8.80;;;18.40;99.90;;;;;;4993142;28;20050;-70
2023/09/08 07:01:03;;;;;;;13.63;9.85;;;18.40;99.90;;;;;;4985575;28;20096;-73
2023/09/08 07:03:36;;;;;;;11.52;8.95;;;18.50;99.90;;;;;;4974309;28;20063;-71
2023/09/08 07:06:07;;;;;;;12.82;9.52;;;18.50;99.90;;;;;;5013062;28;20171;-71
2023/09/08 07:08:35;;;;;;;11.55;10.05;;;18.60;99.90;;;;;;5000427;28;20517;-71
2023/09/08 07:11:03;;;;;;;10.52;9.20;;;18.70;99.90;;;;;;4995345;28;20124;-74
2023/09/08 07:13:31;;;;;;;9.73;8.60;;;18.70;99.90;;;;;;4994555;28;20054;-71
2023/09/08 07:15:58;;;;;;;10.55;9.55;;;18.80;99.90;;;;;;4993953;28;20045;-71
2023/09/08 07:18:27;;;;;;;11.13;9.23;;;18.90;99.90;;;;;;4977078;28;20112;-71
2023/09/08 07:20:55;;;;;;;12.02;8.80;;;19.00;99.90;;;;;;4975232;28;20148;-70
2023/09/08 07:23:22;;;;;;;10.15;8.52;;;19.00;99.90;;;;;;4989731;28;20064;-71
2023/09/08 07:25:50;;;;;;;13.95;9.85;;;19.10;99.90;;;;;;4956601;28;20056;-73
2023/09/08 07:28:21;;;;;;;11.43;8.98;;;19.20;99.90;;;;;;4974721;28;20215;-71
2023/09/08 07:30:52;;;;;;;9.37;8.37;;;19.20;99.90;;;;;;4997249;28;20056;-71
2023/09/08 07:33:22;;;;;;;10.07;8.85;;;19.40;99.90;;;;;;4979214;28;20064;-71
2023/09/08 07:35:51;;;;;;;12.45;9.32;;;19.40;99.90;;;;;;4989953;28;20027;-70
2023/09/08 07:38:18;;;;;;;10.27;9.20;;;19.50;99.90;;;;;;4996634;28;20080;-71
2023/09/08 07:40:46;;;;;;;10.75;8.70;;;19.60;99.90;;;;;;4991099;28;20945;-72
2023/09/08 07:43:13;;;;;;;17.05;8.65;;;19.70;99.90;;;;;;4998294;28;20056;-71
2023/09/08 07:45:42;;;;;;;10.38;8.70;;;19.80;99.90;;;;;;4983672;28;20057;-71
2023/09/08 07:48:09;;;;;;;11.80;8.90;;;20.00;99.90;;;;;;4995102;28;20142;-71
2023/09/08 07:50:37;;;;;;;10.80;9.30;;;20.10;99.90;;;;;;5007738;28;20050;-71
2023/09/08 07:53:05;;;;;;;16.67;10.93;;;20.20;99.90;;;;;;5009877;28;20459;-71
2023/09/08 07:55:32;;;;;;;10.55;9.48;;;20.30;99.90;;;;;;5006455;28;20407;-71
2023/09/08 07:58:01;;;;;;;10.23;8.70;;;20.40;99.90;;;;;;5006120;28;20042;-73
2023/09/08 08:00:29;;;;;;;12.80;10.32;;;20.60;99.90;;;;;;4977597;28;20128;-71
2023/09/08 08:02:57;;;;;;;12.48;9.95;;;20.70;99.90;;;;;;5009211;28;20156;-71
2023/09/08 08:05:25;;;;;;;11.82;9.45;;;20.80;99.90;;;;;;4991739;28;20049;-70
2023/09/08 08:07:53;;;;;;;10.40;8.90;;;20.90;99.90;;;;;;4992448;28;20050;-70
2023/09/08 08:10:20;;;;;;;10.93;9.18;;;21.10;99.90;;;;;;4987432;28;20053;-72
2023/09/08 08:12:48;;;;;;;11.35;8.80;;;21.10;99.90;;;;;;4992338;28;20065;-71
2023/09/08 08:15:15;;;;;;;11.65;9.25;;;21.30;99.90;;;;;;5009102;28;20116;-70
2023/09/08 08:17:43;;;;;;;10.10;9.00;;;21.40;99.90;;;;;;5009084;28;20057;-72
2023/09/08 08:20:16;;;;;;;9.20;8.30;;;21.50;99.90;;;;;;5009510;28;20041;-71
2023/09/08 08:22:46;;;;;;;14.52;8.93;;;21.60;99.90;;;;;;4977978;28;20050;-71
2023/09/08 08:25:13;;;;;;;11.48;8.93;;;21.70;99.90;;;;;;4992492;28;20136;-70
2023/09/08 08:27:41;;;;;;;11.50;9.85;;;21.80;99.90;;;;;;4999262;28;20038;-71
2023/09/08 08:30:11;;;;;;;15.73;11.70;;;21.80;99.90;;;;;;5002964;28;20054;-73
2023/09/08 08:32:43;;;;;;;10.93;9.90;;;22.00;99.90;;;;;;4962632;28;20565;-72
2023/09/08 08:35:11;;;;;;;9.93;9.02;;;22.10;99.90;;;;;;4991992;28;20510;-72
2023/09/08 08:37:40;;;;;;;10.73;9.25;;;22.20;99.90;;;;;;5009959;28;20057;-72
2023/09/08 08:40:13;;;;;;;11.10;9.07;;;22.30;99.90;;;;;;4992410;28;20058;-72
2023/09/08 08:42:42;;;;;;;10.30;9.30;;;22.40;99.90;;;;;;5006757;28;20050;-72
2023/09/08 08:45:10;;;;;;;9.90;8.65;;;22.60;99.90;;;;;;4991754;28;20049;-72
2023/09/08 08:47:39;;;;;;;10.20;8.98;;;22.70;99.90;;;;;;4992494;28;20314;-72
2023/09/08 08:50:10;;;;;;;10.45;9.45;;;22.70;99.90;;;;;;5007922;28;20046;-72
2023/09/08 08:52:39;;;;;;;9.32;8.45;;;22.80;99.90;;;;;;5009584;28;20058;-72
2023/09/08 08:55:08;;;;;;;12.32;9.65;;;22.90;99.90;;;;;;5009271;28;20068;-72
2023/09/08 08:57:39;;;;;;;12.15;9.00;;;22.90;99.90;;;;;;4994051;28;20159;-72
2023/09/08 09:00:11;;;;;;;10.00;8.93;;;23.00;99.90;;;;;;5008495;28;20123;-72
2023/09/08 09:02:41;;;;;;;9.68;8.68;;;23.00;99.90;;;;;;4993117;28;20123;-72
2023/09/08 09:05:13;;;;;;;11.30;8.88;;;23.10;99.90;;;;;;4991016;28;20133;-72
2023/09/08 09:07:45;;;;;;;10.23;9.10;;;23.20;99.90;;;;;;4989512;28;20030;-71
2023/09/08 09:10:13;;;;;;;10.48;9.02;;;23.30;99.90;;;;;;4990718;28;20042;-72
2023/09/08 09:12:41;;;;;;;10.55;9.43;;;23.50;99.90;;;;;;5007784;28;20136;-72
2023/09/08 09:15:09;;;;;;;9.90;9.00;;;23.60;99.90;;;;;;4990936;28;20061;-72
2023/09/08 09:17:38;;;;;;;11.07;9.15;;;23.80;99.90;;;;;;4991137;28;20125;-72
2023/09/08 09:20:17;;;;;;;9.57;8.57;;;23.90;99.90;;;;;;4974736;28;20069;-72
2023/09/08 09:22:45;;;;;;;16.25;11.25;;;24.00;99.90;;;;;;5006370;28;20057;-72
2023/09/08 09:25:24;;;;;;;12.00;10.07;;;24.10;99.90;;;;;;4973024;28;20589;-71
2023/09/08 09:27:57;;;;;;;10.35;9.35;;;24.30;99.90;;;;;;4991392;28;20482;-70
2023/09/08 09:30:26;;;;;;;10.63;9.63;;;24.40;99.90;;;;;;4989788;28;20074;-71
2023/09/08 09:33:01;;;;;;;10.07;9.07;;;24.50;99.90;;;;;;5007232;28;20052;-71
2023/09/08 09:35:45;;;;;;;10.57;9.57;;;24.60;99.90;;;;;;4991148;28;20124;-71
2023/09/08 09:38:13;;;;;;;10.70;9.70;;;24.80;99.90;;;;;;5005988;28;20136;-71
2023/09/08 09:40:41;;;;;;;9.88;8.98;;;25.00;99.90;;;;;;4998587;28;20046;-71
2023/09/08 09:43:09;;;;;;;11.52;9.88;;;25.10;99.90;;;;;;5008074;28;20049;-71
2023/09/08 09:45:38;;;;;;;11.35;9.55;;;25.20;99.90;;;;;;4991486;28;20220;-70
2023/09/08 09:48:07;;;;;;;10.60;9.65;;;25.40;99.90;;;;;;4987218;28;20049;-71
2023/09/08 09:50:38;;;;;;;10.68;9.20;;;25.40;99.90;;;;;;5003926;28;20050;-72
2023/09/08 09:53:14;;;;;;;10.32;9.32;;;25.50;99.90;;;;;;4972771;28;20042;-72
2023/09/08 09:55:44;;;;;;;9.15;8.25;;;25.70;99.90;;;;;;5009764;28;20068;-71
2023/09/08 09:58:14;;;;;;;10.60;9.02;;;25.80;99.90;;;;;;5005483;28;20042;-70
2023/09/08 10:00:47;;;;;;;10.10;9.10;;;25.90;99.90;;;;;;4993061;28;20080;-71
2023/09/08 10:03:15;;;;;;;9.63;8.73;;;26.00;99.90;;;;;;5006837;28;20046;-71
2023/09/08 10:05:43;;;;;;;8.73;8.02;;;26.10;99.90;;;;;;5006993;28;20422;-71
2023/09/08 10:08:10;;;;;;;9.80;8.88;;;26.20;99.90;;;;;;5008032;28;20050;-71
2023/09/08 10:10:41;;;;;;;11.05;8.63;;;26.40;99.90;;;;;;4992015;28;20398;-71
2023/09/08 10:13:10;;;;;;;10.18;9.18;;;26.50;99.90;;;;;;5010305;28;20046;-71
2023/09/08 10:15:39;;;;;;;10.40;8.60;;;26.60;99.90;;;;;;5008259;28;20125;-71
2023/09/08 10:18:10;;;;;;;9.65;8.73;;;26.80;99.90;;;;;;5008008;28;20223;-71
2023/09/08 10:20:39;;;;;;;9.55;8.65;;;27.00;99.90;;;;;;5008350;28;20054;-71
2023/09/08 10:23:12;;;;;;;11.13;9.10;;;27.10;99.90;;;;;;4989306;28;20054;-71
2023/09/08 10:25:43;;;;;;;10.05;8.80;;;27.30;99.90;;;;;;4989904;28;20132;-71
2023/09/08 10:28:12;;;;;;;11.32;8.75;;;27.50;99.90;;;;;;5006383;28;20034;-72
2023/09/08 10:30:41;;;;;;;10.32;9.32;;;27.60;99.90;;;;;;5008124;28;20045;-72
2023/09/08 10:33:10;;;;;;;10.00;8.98;;;27.80;99.90;;;;;;5007083;28;20495;-70
2023/09/08 10:35:39;;;;;;;9.20;8.25;;;28.00;99.90;;;;;;5006283;28;20077;-71
2023/09/08 10:38:26;;;;;;;11.25;9.32;;;28.20;99.90;;;;;;4995122;28;20132;-71
2023/09/08 10:41:16;;;;;;;9.77;8.85;;;28.50;99.90;;;;;;5000296;28;20061;-70
2023/09/08 10:43:45;;;;;;;12.70;8.83;;;28.50;99.70;;;;;;5011506;28;20584;-72
2023/09/08 10:46:23;;;;;;;9.80;8.90;;;28.70;99.20;;;;;;5011171;28;20050;-72
2023/09/08 10:48:54;;;;;;;9.98;8.82;;;28.90;99.10;;;;;;4991146;28;20046;-72
2023/09/08 10:51:24;;;;;;;10.77;9.68;;;29.10;98.90;;;;;;4987862;28;20038;-73
2023/09/08 10:53:51;;;;;;;12.48;8.48;;;29.30;98.60;;;;;;4994099;28;20133;-71
2023/09/08 10:56:19;;;;;;;9.95;8.95;;;29.30;97.80;;;;;;5010613;28;20545;-72
2023/09/08 10:58:51;;;;;;;11.25;10.15;;;29.50;97.80;;;;;;4994220;28;20474;-71
2023/09/08 11:01:27;;;;;;;10.15;9.25;;;29.70;96.90;;;;;;4993133;28;20116;-73
2023/09/08 11:03:55;;;;;;;9.82;8.80;;;29.90;96.60;;;;;;5011969;28;20053;-73
2023/09/08 11:06:23;;;;;;;10.30;9.40;;;29.80;95.70;;;;;;4976754;28;20137;-70
2023/09/08 11:08:55;;;;;;;10.15;9.15;;;30.10;95.40;;;;;;5011065;28;20042;-71
2023/09/08 11:11:23;;;;;;;9.63;8.73;;;30.20;94.90;;;;;;4992231;28;20050;-71
2023/09/08 11:13:51;;;;;;;9.75;8.75;;;30.60;94.40;;;;;;4993327;28;20048;-75
2023/09/08 11:16:23;;;;;;;10.35;8.55;;;30.90;93.80;;;;;;5009923;28;20053;-72
2023/09/08 11:18:51;;;;;;;9.18;8.25;;;31.10;93.00;;;;;;5008473;28;20042;-72
2023/09/08 11:21:19;;;;;;;9.57;8.77;;;31.30;92.50;;;;;;4991803;28;20168;-72
2023/09/08 11:23:47;;;;;;;8.95;8.20;;;31.50;92.10;;;;;;4992946;28;20403;-71
2023/09/08 11:26:16;;;;;;;9.25;8.35;;;31.70;90.90;;;;;;4991664;28;20613;-71
2023/09/08 11:28:44;;;;;;;9.55;8.65;;;31.90;90.30;;;;;;5010412;28;20042;-70
2023/09/08 11:31:12;;;;;;;9.23;8.20;;;32.20;90.00;;;;;;5007719;28;20438;-71
2023/09/08 11:33:40;;;;;;;11.38;8.57;;;32.40;88.60;;;;;;4992305;28;20137;-71
2023/09/08 11:36:14;;;;;;;8.63;7.82;;;32.60;87.40;;;;;;5009724;28;20046;-72
2023/09/08 11:38:45;;;;;;;9.52;8.45;;;32.70;85.00;;;;;;5009585;28;20073;-72
2023/09/08 11:41:12;;;;;;;9.80;8.88;;;33.00;84.10;;;;;;4992339;28;20263;-71
2023/09/08 11:43:40;;;;;;;9.15;8.23;;;33.10;83.30;;;;;;4991435;28;20061;-72
2023/09/08 11:46:08;;;;;;;10.70;8.82;;;33.10;79.60;;;;;;4991008;28;20371;-71
2023/09/08 11:48:35;;;;;;;9.65;8.73;;;33.10;81.90;;;;;;4988379;28;20043;-72
2023/09/08 11:51:05;;;;;;;9.15;8.27;;;33.30;81.20;;;;;;5007733;28;20176;-72
2023/09/08 11:53:33;;;;;;;9.32;8.07;;;33.60;79.60;;;;;;4992577;28;20081;-73
2023/09/08 11:56:01;;;;;;;11.57;8.57;;;33.70;77.90;;;;;;5006696;28;20038;-71
2023/09/08 11:58:29;;;;;;;9.43;8.50;;;33.80;77.30;;;;;;5009103;28;20555;-71
2023/09/08 12:00:57;;;;;;;12.23;8.20;;;34.10;75.80;;;;;;5009430;28;20057;-71
2023/09/08 12:03:25;;;;;;;10.63;9.07;;;34.50;75.20;;;;;;5008950;28;20053;-71
2023/09/08 12:05:53;;;;;;;9.98;8.95;;;35.00;73.40;;;;;;4986451;28;20068;-69
2023/09/08 12:08:20;;;;;;;9.68;8.65;;;35.10;72.30;;;;;;5007351;28;20099;-71
2023/09/08 12:10:48;;;;;;;10.27;9.35;;;35.40;69.70;;;;;;5007812;28;20070;-71
2023/09/08 12:13:21;;;;;;;9.52;8.68;;;35.80;69.70;;;;;;5008965;28;20046;-71
2023/09/08 12:15:50;;;;;;;9.75;8.82;;;36.00;68.60;;;;;;4989506;28;20073;-71
2023/09/08 12:18:18;;;;;;;9.82;8.82;;;36.20;67.60;;;;;;4986970;28;20133;-71
2023/09/08 12:20:46;;;;;;;9.10;8.20;;;36.50;67.40;;;;;;5005297;28;20076;-71
2023/09/08 12:23:19;;;;;;;10.45;8.32;;;36.30;65.40;;;;;;5008873;28;20076;-71
2023/09/08 12:25:51;;;;;;;9.60;8.70;;;36.60;65.50;;;;;;4995042;28;20517;-70
2023/09/08 12:28:20;;;;;;;9.27;8.48;;;36.70;64.80;;;;;;5008826;28;20038;-71
2023/09/08 12:30:54;;;;;;;10.63;8.25;;;36.90;63.30;;;;;;4992767;28;20049;-70
2023/09/08 12:33:22;;;;;;;9.90;9.05;;;37.30;62.30;;;;;;5003933;28;20046;-71
2023/09/08 12:35:51;;;;;;;9.68;8.68;;;37.30;61.40;;;;;;5008024;28;20046;-71
2023/09/08 12:38:18;;;;;;;9.52;8.80;;;37.50;60.70;;;;;;5007074;28;20098;-71
2023/09/08 12:40:46;;;;;;;8.57;7.82;;;37.20;59.70;;;;;;5007841;28;20463;-71
2023/09/08 12:43:14;;;;;;;10.45;8.18;;;36.90;59.20;;;;;;5007771;28;20069;-73
2023/09/08 12:45:53;;;;;;;8.40;7.70;;;37.50;57.80;;;;;;5008682;28;20516;-72